Time;durP1;ratioP1;P1;durP2;ratioP2;P2;SDS_P1;SDS_P2;PMS_P1;PMS_P2;Temp;Humidity;BMP_temperature;BMP_pressure;BME280_temperature;BME280_humidity;BME280_pressure;Samples;Min_cycle;Max_cycle;Signal;HPM_P1;HPM_P2
2023/03/16 00:00:02;;;;;;;8.18;1.73;;;-2.10;99.90;;;;;;5055963;28;25056;-73
2023/03/16 00:02:30;;;;;;;4.18;1.55;;;-2.10;99.90;;;;;;5056318;28;25131;-72
2023/03/16 00:04:57;;;;;;;11.00;1.83;;;-2.10;99.90;;;;;;5056258;28;25063;-73
2023/03/16 00:07:25;;;;;;;3.53;1.65;;;-2.10;99.90;;;;;;5055866;28;25079;-73
2023/03/16 00:09:53;;;;;;;8.88;1.70;;;-2.10;99.90;;;;;;5055831;28;25053;-73
2023/03/16 00:12:21;;;;;;;3.63;1.33;;;-2.10;99.90;;;;;;5055968;28;25078;-72
2023/03/16 00:14:49;;;;;;;5.80;1.75;;;-2.10;99.90;;;;;;5056062;28;25124;-73
2023/03/16 00:17:19;;;;;;;3.72;1.25;;;-2.10;99.90;;;;;;5055425;28;25065;-72
2023/03/16 00:19:50;;;;;;;4.20;1.23;;;-2.00;99.90;;;;;;5056404;28;25097;-72
2023/03/16 00:22:17;;;;;;;10.02;1.55;;;-2.00;99.90;;;;;;5055931;28;25058;-72
2023/03/16 00:24:45;;;;;;;4.47;1.75;;;-2.00;99.90;;;;;;5056329;28;25108;-72
2023/03/16 00:27:13;;;;;;;5.85;1.42;;;-2.00;99.90;;;;;;5056035;28;25098;-73
2023/03/16 00:29:46;;;;;;;7.63;1.90;;;-2.00;99.90;;;;;;5055608;28;25060;-72
2023/03/16 00:32:15;;;;;;;8.30;1.80;;;-2.00;99.90;;;;;;5055829;28;25055;-72
2023/03/16 00:34:44;;;;;;;4.50;1.75;;;-2.00;99.90;;;;;;5055515;28;25138;-73
2023/03/16 00:37:14;;;;;;;6.32;1.70;;;-1.90;99.90;;;;;;5055666;28;25118;-72
2023/03/16 00:39:42;;;;;;;5.20;1.70;;;-2.00;99.90;;;;;;5056178;28;25121;-72
2023/03/16 00:42:11;;;;;;;6.05;1.70;;;-2.00;99.90;;;;;;5055770;28;25048;-72
2023/03/16 00:44:38;;;;;;;6.38;1.75;;;-2.00;99.90;;;;;;5057136;28;25082;-72
2023/03/16 00:47:06;;;;;;;4.72;2.00;;;-2.00;99.90;;;;;;5055960;28;25056;-73
2023/03/16 00:49:35;;;;;;;7.07;1.73;;;-2.00;99.90;;;;;;5021551;28;25119;-72
2023/03/16 00:52:04;;;;;;;8.32;1.90;;;-2.00;99.90;;;;;;5039078;28;25100;-73
2023/03/16 00:54:31;;;;;;;4.13;1.73;;;-2.00;99.90;;;;;;5039257;28;25065;-73
2023/03/16 00:57:00;;;;;;;5.85;1.67;;;-2.00;99.90;;;;;;5039572;28;25064;-72
2023/03/16 00:59:28;;;;;;;7.43;1.98;;;-1.90;99.90;;;;;;5039021;28;25111;-73
2023/03/16 01:01:56;;;;;;;9.15;2.05;;;-1.90;99.90;;;;;;5039017;28;25083;-72
2023/03/16 01:04:23;;;;;;;11.18;1.98;;;-1.90;99.90;;;;;;5038914;28;25056;-73
2023/03/16 01:06:50;;;;;;;6.88;1.48;;;-1.90;99.90;;;;;;5039714;28;25093;-73
2023/03/16 01:09:18;;;;;;;3.95;1.50;;;-1.90;99.90;;;;;;5038809;28;25067;-73
2023/03/16 01:11:48;;;;;;;10.00;1.85;;;-1.90;99.90;;;;;;5039342;28;25064;-73
2023/03/16 01:14:17;;;;;;;4.20;1.80;;;-1.90;99.90;;;;;;5038542;28;25066;-73
2023/03/16 01:16:44;;;;;;;10.45;1.98;;;-1.90;99.90;;;;;;5038824;28;25061;-73
2023/03/16 01:19:13;;;;;;;8.45;1.90;;;-1.90;99.90;;;;;;5021032;28;25070;-73
2023/03/16 01:21:41;;;;;;;2.53;1.08;;;-1.80;99.90;;;;;;5038905;28;25100;-72
2023/03/16 01:24:09;;;;;;;6.85;2.13;;;-1.80;99.90;;;;;;5038707;28;25105;-72
2023/03/16 01:26:37;;;;;;;5.18;1.70;;;-1.80;99.90;;;;;;5021060;28;25051;-73
2023/03/16 01:29:04;;;;;;;5.47;1.92;;;-1.80;99.90;;;;;;5038964;28;25076;-73
2023/03/16 01:31:32;;;;;;;4.03;1.48;;;-1.80;99.90;;;;;;5038430;28;25154;-73
2023/03/16 01:34:02;;;;;;;8.88;2.10;;;-1.80;99.90;;;;;;5038815;28;25067;-72
2023/03/16 01:36:31;;;;;;;6.43;1.60;;;-1.90;99.90;;;;;;5038287;28;25068;-72
2023/03/16 01:39:02;;;;;;;5.75;1.63;;;-1.90;99.90;;;;;;5038270;28;25128;-73
2023/03/16 01:41:30;;;;;;;5.03;1.60;;;-1.90;99.90;;;;;;5020675;28;25062;-73
2023/03/16 01:43:57;;;;;;;4.43;1.52;;;-1.90;99.90;;;;;;5038084;28;25061;-72
2023/03/16 01:46:29;;;;;;;7.55;1.45;;;-1.90;99.90;;;;;;5020627;28;25084;-73
2023/03/16 01:48:59;;;;;;;6.25;1.50;;;-1.90;99.90;;;;;;5037927;28;25077;-73
2023/03/16 01:51:43;;;;;;;6.22;1.17;;;-1.90;99.90;;;;;;5038590;28;25093;-73
2023/03/16 01:54:27;;;;;;;7.10;1.65;;;-1.90;99.90;;;;;;5038445;28;25125;-73
2023/03/16 01:57:08;;;;;;;7.75;1.27;;;-1.90;99.90;;;;;;5019375;28;25068;-73
2023/03/16 01:59:52;;;;;;;4.38;1.15;;;-1.80;99.90;;;;;;5038421;28;25138;-73
2023/03/16 02:02:24;;;;;;;4.07;1.10;;;-1.80;99.90;;;;;;5038115;28;25074;-73
2023/03/16 02:05:12;;;;;;;4.30;1.17;;;-1.80;99.90;;;;;;5037774;28;25066;-72
2023/03/16 02:07:57;;;;;;;5.43;2.28;;;-1.70;99.90;;;;;;5037717;28;25083;-72
2023/03/16 02:10:27;;;;;;;4.38;1.40;;;-1.70;99.90;;;;;;5037606;28;25076;-73
2023/03/16 02:12:56;;;;;;;6.18;1.38;;;-1.70;99.90;;;;;;5037605;28;25132;-72
2023/03/16 02:15:26;;;;;;;6.15;1.25;;;-1.70;99.90;;;;;;5037414;28;25035;-73
2023/03/16 02:17:53;;;;;;;2.75;1.05;;;-1.60;99.90;;;;;;5037526;28;25074;-73
2023/03/16 02:20:30;;;;;;;5.43;1.60;;;-1.60;99.90;;;;;;5037388;28;25063;-73
2023/03/16 02:22:58;;;;;;;8.48;1.65;;;-1.60;99.90;;;;;;5037370;28;25098;-73
2023/03/16 02:25:45;;;;;;;3.28;1.05;;;-1.60;99.90;;;;;;5037659;28;25073;-73
2023/03/16 02:28:38;;;;;;;6.75;1.83;;;-1.50;99.90;;;;;;5037330;28;25053;-73
2023/03/16 02:31:06;;;;;;;4.40;0.90;;;-1.50;99.90;;;;;;5038242;28;25084;-73
2023/03/16 02:33:34;;;;;;;3.58;1.23;;;-1.50;99.90;;;;;;5019606;28;25071;-73
2023/03/16 02:36:01;;;;;;;2.40;1.00;;;-1.60;99.90;;;;;;5037693;28;25065;-72
2023/03/16 02:38:28;;;;;;;4.25;1.17;;;-1.50;99.90;;;;;;5037659;28;25121;-73
2023/03/16 02:41:14;;;;;;;3.38;1.15;;;-1.50;99.90;;;;;;5037294;28;25079;-73
2023/03/16 02:43:51;;;;;;;2.20;0.95;;;-1.60;99.90;;;;;;5019466;28;25063;-73
2023/03/16 02:46:23;;;;;;;2.05;1.00;;;-1.60;99.90;;;;;;5037038;28;25068;-73
2023/03/16 02:49:04;;;;;;;4.28;1.08;;;-1.70;99.90;;;;;;5036941;28;25077;-73
2023/03/16 02:51:31;;;;;;;2.92;0.93;;;-1.70;99.90;;;;;;5037646;28;25143;-73
2023/03/16 02:53:58;;;;;;;5.15;2.13;;;-1.70;99.90;;;;;;5019983;28;25141;-73
2023/03/16 02:56:26;;;;;;;3.25;1.35;;;-1.70;99.90;;;;;;5036819;28;25084;-73
2023/03/16 02:58:53;;;;;;;5.57;1.05;;;-1.80;99.90;;;;;;5037019;28;25077;-73
2023/03/16 03:01:20;;;;;;;3.35;1.15;;;-1.80;99.90;;;;;;5036836;28;25060;-73
2023/03/16 03:03:48;;;;;;;4.03;1.20;;;-1.80;99.90;;;;;;5019172;28;25119;-73
2023/03/16 03:06:15;;;;;;;3.03;1.23;;;-1.80;99.90;;;;;;5036678;28;25064;-73
2023/03/16 03:08:42;;;;;;;5.45;1.45;;;-1.80;99.90;;;;;;5036286;28;25119;-73
2023/03/16 03:11:09;;;;;;;9.90;1.35;;;-1.90;99.90;;;;;;5002871;28;25057;-73
2023/03/16 03:13:38;;;;;;;6.20;1.20;;;-1.90;99.90;;;;;;5018942;28;25120;-73
2023/03/16 03:16:05;;;;;;;5.78;1.35;;;-1.90;99.90;;;;;;5037069;28;25103;-73
2023/03/16 03:18:33;;;;;;;4.80;1.45;;;-1.90;99.90;;;;;;5036781;28;25075;-73
2023/03/16 03:21:00;;;;;;;3.88;1.20;;;-1.90;99.90;;;;;;5036651;28;25088;-72
2023/03/16 03:23:28;;;;;;;3.50;1.13;;;-1.90;99.90;;;;;;5036971;28;25048;-73
2023/03/16 03:25:59;;;;;;;7.50;1.35;;;-1.90;99.90;;;;;;5036430;28;25127;-72
2023/03/16 03:28:26;;;;;;;4.22;1.50;;;-2.00;99.90;;;;;;5036953;28;25063;-73
2023/03/16 03:30:53;;;;;;;4.93;1.33;;;-2.00;99.90;;;;;;5019386;28;25104;-72
2023/03/16 03:33:21;;;;;;;9.60;1.73;;;-2.00;99.90;;;;;;5036838;28;25079;-72
2023/03/16 03:35:58;;;;;;;5.47;2.60;;;-2.10;99.90;;;;;;5018925;28;25053;-73
2023/03/16 03:38:26;;;;;;;6.63;1.42;;;-2.10;99.90;;;;;;5036451;28;25100;-73
2023/03/16 03:40:58;;;;;;;3.95;1.52;;;-2.20;99.90;;;;;;5018739;28;25053;-72
2023/03/16 03:43:26;;;;;;;4.40;1.35;;;-2.20;99.90;;;;;;5036322;28;25053;-73
2023/03/16 03:45:57;;;;;;;8.65;1.70;;;-2.20;99.90;;;;;;5036888;28;25125;-73
2023/03/16 03:48:25;;;;;;;7.25;1.50;;;-2.20;99.90;;;;;;5040119;28;25067;-72
2023/03/16 03:50:52;;;;;;;2.53;1.30;;;-2.20;99.90;;;;;;5056690;28;25085;-73
2023/03/16 03:53:20;;;;;;;6.53;1.10;;;-2.20;99.90;;;;;;5056625;28;25108;-73
2023/03/16 03:55:48;;;;;;;3.75;1.05;;;-2.20;99.90;;;;;;5055040;28;25080;-73
2023/03/16 03:58:16;;;;;;;3.63;1.70;;;-2.20;99.90;;;;;;5056033;28;25056;-73
2023/03/16 04:00:43;;;;;;;10.70;2.95;;;-2.20;99.90;;;;;;5056020;28;25073;-72
2023/03/16 04:03:10;;;;;;;4.43;1.20;;;-2.20;99.90;;;;;;5056548;28;25074;-73
2023/03/16 04:05:38;;;;;;;7.65;1.88;;;-2.20;99.90;;;;;;5056703;28;25089;-73
2023/03/16 04:08:05;;;;;;;2.28;1.23;;;-2.30;99.90;;;;;;5055919;28;25138;-72
2023/03/16 04:10:32;;;;;;;4.88;1.58;;;-2.30;99.90;;;;;;5054913;28;25141;-73
2023/03/16 04:13:00;;;;;;;5.97;1.75;;;-2.30;99.90;;;;;;5056432;28;25065;-73
2023/03/16 04:15:27;;;;;;;4.15;1.35;;;-2.40;99.90;;;;;;5055015;28;25146;-72
2023/03/16 04:17:55;;;;;;;5.40;2.08;;;-2.40;99.90;;;;;;5054721;28;25086;-72
2023/03/16 04:20:23;;;;;;;6.70;1.85;;;-2.40;99.90;;;;;;5057335;28;25062;-73
2023/03/16 04:22:57;;;;;;;3.20;1.38;;;-2.50;99.90;;;;;;5059694;28;25059;-73
2023/03/16 04:25:26;;;;;;;6.35;1.42;;;-2.50;99.90;;;;;;5060247;28;25059;-73
2023/03/16 04:27:54;;;;;;;4.18;1.85;;;-2.50;99.90;;;;;;5059470;28;25066;-73
2023/03/16 04:30:25;;;;;;;3.20;1.48;;;-2.50;99.90;;;;;;5059502;28;25080;-72
2023/03/16 04:32:52;;;;;;;17.40;2.80;;;-2.50;99.90;;;;;;5059465;28;25122;-73
2023/03/16 04:35:20;;;;;;;12.13;2.05;;;-2.50;99.90;;;;;;5059797;28;25075;-72
2023/03/16 04:37:48;;;;;;;6.63;1.88;;;-2.50;99.90;;;;;;5059639;28;25062;-73
2023/03/16 04:40:15;;;;;;;12.15;1.73;;;-2.40;99.90;;;;;;5059600;28;25061;-72
2023/03/16 04:42:44;;;;;;;8.10;2.45;;;-2.30;99.90;;;;;;5058230;28;25108;-73
2023/03/16 04:45:13;;;;;;;4.85;1.83;;;-2.20;99.90;;;;;;5059674;28;25077;-73
2023/03/16 04:47:40;;;;;;;7.00;1.80;;;-2.20;99.90;;;;;;5057861;28;25065;-72
2023/03/16 04:50:09;;;;;;;4.72;1.92;;;-2.10;99.90;;;;;;5059215;28;25421;-72
2023/03/16 04:52:36;;;;;;;11.00;1.90;;;-2.00;99.90;;;;;;5059141;28;25073;-73
2023/03/16 04:55:06;;;;;;;3.05;1.83;;;-2.00;99.90;;;;;;5059091;28;25066;-72
2023/03/16 04:57:34;;;;;;;4.35;1.25;;;-1.90;99.90;;;;;;5057923;28;25390;-72
2023/03/16 05:00:08;;;;;;;4.68;1.83;;;-1.80;99.90;;;;;;5059254;28;25059;-72
2023/03/16 05:02:37;;;;;;;4.65;1.73;;;-1.70;99.90;;;;;;5058897;28;25070;-73
2023/03/16 05:05:05;;;;;;;6.00;2.22;;;-1.70;99.90;;;;;;5059407;28;25062;-73
2023/03/16 05:07:32;;;;;;;5.55;1.83;;;-1.60;99.90;;;;;;5059092;28;25053;-72
2023/03/16 05:09:59;;;;;;;9.30;2.38;;;-1.60;99.90;;;;;;5058783;28;25102;-73
2023/03/16 05:12:27;;;;;;;5.70;1.52;;;-1.60;99.90;;;;;;5058916;28;25059;-73
2023/03/16 05:14:55;;;;;;;11.25;2.60;;;-1.50;99.90;;;;;;5059178;28;25119;-73
2023/03/16 05:17:22;;;;;;;3.72;1.73;;;-1.50;99.90;;;;;;5058713;28;25069;-73
2023/03/16 05:19:49;;;;;;;6.53;1.92;;;-1.40;99.90;;;;;;5057479;28;25051;-73
2023/03/16 05:22:16;;;;;;;4.68;1.88;;;-1.40;99.90;;;;;;5059260;28;25078;-73
2023/03/16 05:24:43;;;;;;;5.45;2.10;;;-1.30;99.90;;;;;;5057806;28;25058;-73
2023/03/16 05:27:11;;;;;;;6.70;2.17;;;-1.30;99.90;;;;;;5058468;28;25084;-73
2023/03/16 05:29:38;;;;;;;4.13;1.67;;;-1.30;99.90;;;;;;5058366;28;25097;-73
2023/03/16 05:32:06;;;;;;;9.90;1.90;;;-1.30;99.90;;;;;;5058977;28;25066;-73
2023/03/16 05:34:33;;;;;;;6.68;2.13;;;-1.30;99.90;;;;;;5058157;28;25045;-73
2023/03/16 05:37:01;;;;;;;5.28;2.10;;;-1.30;99.90;;;;;;5058813;28;25074;-73
2023/03/16 05:39:29;;;;;;;5.03;1.55;;;-1.20;99.90;;;;;;5058736;28;25084;-73
2023/03/16 05:41:57;;;;;;;9.07;2.10;;;-1.20;99.90;;;;;;5058381;28;25056;-72
2023/03/16 05:44:24;;;;;;;10.43;2.28;;;-1.20;99.90;;;;;;5058649;28;25112;-73
2023/03/16 05:46:51;;;;;;;5.50;1.50;;;-1.10;99.90;;;;;;5058684;28;25067;-73
2023/03/16 05:49:18;;;;;;;6.82;1.95;;;-1.10;99.90;;;;;;5038162;28;25075;-72
2023/03/16 05:51:45;;;;;;;7.70;1.63;;;-1.00;99.90;;;;;;5038218;28;25049;-73
2023/03/16 05:54:13;;;;;;;17.23;5.22;;;-0.90;99.90;;;;;;5037921;28;25147;-73
2023/03/16 05:56:40;;;;;;;23.95;7.47;;;-0.90;99.90;;;;;;5020628;28;25130;-72
2023/03/16 05:59:08;;;;;;;25.35;8.18;;;-0.80;99.90;;;;;;5038449;28;25102;-73
2023/03/16 06:01:35;;;;;;;12.98;4.95;;;-0.70;99.90;;;;;;5020483;28;25140;-73
2023/03/16 06:04:04;;;;;;;15.05;3.95;;;-0.60;99.90;;;;;;5020368;28;25103;-72
2023/03/16 06:06:31;;;;;;;13.77;3.13;;;-0.50;99.90;;;;;;5037795;28;25130;-72
2023/03/16 06:08:59;;;;;;;6.15;3.30;;;-0.40;99.90;;;;;;5038259;28;25111;-72
2023/03/16 06:11:26;;;;;;;13.40;2.05;;;-0.30;99.90;;;;;;5037808;28;25368;-73
2023/03/16 06:13:56;;;;;;;7.05;2.92;;;-0.20;99.90;;;;;;5020044;28;25103;-72
2023/03/16 06:16:24;;;;;;;10.63;3.03;;;-0.10;99.90;;;;;;5020421;28;25078;-73
2023/03/16 06:18:52;;;;;;;8.07;2.70;;;0.00;99.90;;;;;;5037708;28;25095;-73
2023/03/16 06:21:19;;;;;;;6.13;2.20;;;0.10;99.90;;;;;;5037433;28;25073;-73
2023/03/16 06:23:46;;;;;;;5.60;2.50;;;0.20;99.90;;;;;;5037679;28;25083;-72
2023/03/16 06:26:14;;;;;;;10.32;2.80;;;0.30;99.90;;;;;;5037634;28;25060;-72
2023/03/16 06:28:41;;;;;;;4.15;1.45;;;0.40;99.90;;;;;;5020523;28;25077;-73
2023/03/16 06:31:09;;;;;;;7.72;2.25;;;0.50;99.90;;;;;;5037320;28;25078;-87
2023/03/16 06:33:37;;;;;;;8.32;2.67;;;0.60;99.90;;;;;;5019103;28;25053;-79
2023/03/16 06:36:06;;;;;;;3.90;1.90;;;0.70;99.90;;;;;;5037608;28;25069;-78
2023/03/16 06:38:33;;;;;;;3.85;1.63;;;0.80;99.90;;;;;;5037127;28;25071;-77
2023/03/16 06:41:01;;;;;;;4.72;1.45;;;0.90;99.90;;;;;;5037163;28;25127;-78
2023/03/16 06:43:28;;;;;;;8.20;1.95;;;0.90;99.90;;;;;;5020819;28;25060;-79
2023/03/16 06:45:56;;;;;;;7.45;1.85;;;1.00;99.90;;;;;;5019677;28;25064;-79
2023/03/16 06:48:23;;;;;;;6.10;1.80;;;1.10;99.90;;;;;;5040115;28;25080;-83
2023/03/16 06:50:50;;;;;;;4.03;1.98;;;1.20;99.90;;;;;;5055064;28;25098;-81
2023/03/16 06:53:18;;;;;;;5.78;1.95;;;1.30;99.90;;;;;;5056316;28;25115;-80
2023/03/16 06:55:46;;;;;;;9.93;1.98;;;1.40;99.90;;;;;;5056903;28;25069;-79
2023/03/16 06:58:13;;;;;;;12.80;1.50;;;1.50;99.90;;;;;;5056757;28;25081;-78
2023/03/16 07:00:41;;;;;;;8.50;1.48;;;1.50;99.90;;;;;;5055704;28;25107;-78
2023/03/16 07:03:09;;;;;;;11.18;2.10;;;1.60;99.90;;;;;;5056682;28;25078;-77
2023/03/16 07:05:37;;;;;;;6.55;1.92;;;1.70;99.90;;;;;;5057101;28;25061;-78
2023/03/16 07:08:05;;;;;;;4.80;1.50;;;1.80;99.90;;;;;;5056589;28;25060;-77
2023/03/16 07:10:34;;;;;;;6.70;3.75;;;1.80;99.90;;;;;;5056535;28;25100;-78
2023/03/16 07:13:01;;;;;;;4.32;1.13;;;1.90;99.90;;;;;;5056754;28;25089;-78
2023/03/16 07:15:29;;;;;;;3.13;1.50;;;1.90;99.90;;;;;;5056610;28;25072;-78
2023/03/16 07:17:57;;;;;;;7.20;2.03;;;2.00;99.90;;;;;;5057037;28;25108;-74
2023/03/16 07:20:25;;;;;;;5.82;1.58;;;2.10;99.90;;;;;;5056462;28;25086;-73
2023/03/16 07:22:53;;;;;;;6.43;2.30;;;2.10;99.90;;;;;;5056932;28;25083;-74
2023/03/16 07:25:20;;;;;;;5.78;2.30;;;2.20;99.90;;;;;;5056652;28;25123;-73
2023/03/16 07:27:48;;;;;;;6.63;1.30;;;2.30;99.90;;;;;;5056613;28;25083;-74
2023/03/16 07:30:16;;;;;;;3.95;1.50;;;2.40;99.90;;;;;;5056331;28;25098;-74
2023/03/16 07:32:43;;;;;;;4.43;1.77;;;2.50;99.90;;;;;;5056176;28;25057;-73
2023/03/16 07:35:10;;;;;;;6.03;2.13;;;2.50;99.90;;;;;;5056159;28;25072;-73
2023/03/16 07:37:37;;;;;;;6.18;2.20;;;2.60;99.90;;;;;;5056227;28;25108;-73
2023/03/16 07:40:07;;;;;;;10.20;2.58;;;2.70;99.90;;;;;;5056825;28;25076;-74
2023/03/16 07:42:36;;;;;;;9.30;2.22;;;2.70;99.90;;;;;;5056084;28;25120;-73
2023/03/16 07:45:05;;;;;;;7.53;3.28;;;2.80;99.90;;;;;;5056140;28;25113;-72
2023/03/16 07:47:32;;;;;;;4.82;1.48;;;3.00;99.90;;;;;;5054729;28;25107;-73
2023/03/16 07:50:00;;;;;;;8.75;2.40;;;3.10;99.90;;;;;;5056048;28;25052;-72
2023/03/16 07:52:27;;;;;;;4.78;1.70;;;3.10;99.90;;;;;;5056226;28;25088;-72
2023/03/16 07:54:55;;;;;;;5.10;1.52;;;3.30;99.90;;;;;;5060169;28;25097;-73
2023/03/16 07:57:23;;;;;;;5.78;1.40;;;3.40;99.90;;;;;;5060715;28;25060;-73
2023/03/16 07:59:50;;;;;;;4.93;1.38;;;3.40;99.90;;;;;;5060144;28;25129;-73
2023/03/16 08:02:20;;;;;;;3.55;1.17;;;3.50;99.90;;;;;;5060318;28;25083;-71
2023/03/16 08:04:47;;;;;;;4.93;1.83;;;3.60;99.90;;;;;;5059972;28;25105;-73
2023/03/16 08:07:15;;;;;;;11.85;2.42;;;3.80;99.90;;;;;;5058988;28;25134;-73
2023/03/16 08:09:42;;;;;;;6.10;1.75;;;3.80;99.90;;;;;;5058831;28;25119;-73
2023/03/16 08:12:10;;;;;;;5.85;1.00;;;3.90;99.90;;;;;;5060186;28;25070;-73
2023/03/16 08:14:37;;;;;;;3.13;0.80;;;4.00;99.90;;;;;;5059794;28;25098;-73
2023/03/16 08:17:11;;;;;;;4.22;1.13;;;4.10;99.90;;;;;;5060227;28;25055;-73
2023/03/16 08:19:38;;;;;;;6.43;1.33;;;4.20;99.90;;;;;;5059695;28;25135;-73
2023/03/16 08:22:06;;;;;;;5.68;1.67;;;4.30;99.90;;;;;;5025757;28;25054;-73
2023/03/16 08:24:34;;;;;;;6.80;1.05;;;4.40;99.90;;;;;;5059242;28;25063;-73
2023/03/16 08:27:02;;;;;;;4.63;1.10;;;4.50;99.90;;;;;;5059812;28;25045;-73
2023/03/16 08:29:33;;;;;;;7.47;1.77;;;4.60;99.90;;;;;;5059606;28;25056;-73
2023/03/16 08:32:01;;;;;;;4.47;1.45;;;4.70;99.90;;;;;;5059871;28;25095;-73
2023/03/16 08:34:29;;;;;;;4.05;1.40;;;4.70;99.90;;;;;;5059679;28;25083;-73
2023/03/16 08:36:57;;;;;;;5.93;1.33;;;4.80;99.90;;;;;;5059884;28;25055;-73
2023/03/16 08:39:24;;;;;;;3.85;1.20;;;4.90;99.90;;;;;;5059398;28;25087;-74
2023/03/16 08:41:52;;;;;;;3.47;1.23;;;4.90;99.90;;;;;;5059311;28;25065;-73
2023/03/16 08:44:22;;;;;;;5.97;1.30;;;4.90;99.90;;;;;;5059334;28;25075;-73
2023/03/16 08:46:51;;;;;;;2.60;1.20;;;5.00;99.90;;;;;;5059534;28;25052;-73
2023/03/16 08:49:19;;;;;;;5.55;1.67;;;5.00;99.90;;;;;;5039698;28;25155;-73
2023/03/16 08:51:47;;;;;;;5.43;1.52;;;5.10;99.90;;;;;;5039793;28;25066;-73
2023/03/16 08:54:14;;;;;;;3.95;1.00;;;5.10;99.90;;;;;;5021530;28;25095;-73
2023/03/16 08:56:43;;;;;;;4.43;1.70;;;5.20;99.90;;;;;;5039441;28;25155;-73
2023/03/16 08:59:10;;;;;;;4.47;1.48;;;5.30;99.90;;;;;;5039586;28;25072;-73
2023/03/16 09:01:39;;;;;;;3.20;1.85;;;5.30;99.90;;;;;;5039201;28;25115;-73
2023/03/16 09:04:06;;;;;;;2.50;1.00;;;5.40;99.90;;;;;;5021953;28;25078;-73
2023/03/16 09:06:34;;;;;;;8.13;1.50;;;5.40;99.90;;;;;;5038258;28;25366;-73
2023/03/16 09:09:03;;;;;;;1.65;1.00;;;5.50;99.90;;;;;;5038811;28;25096;-73
2023/03/16 09:11:32;;;;;;;4.68;1.63;;;5.50;99.90;;;;;;5038907;28;25085;-73
2023/03/16 09:14:00;;;;;;;3.65;1.40;;;5.50;99.90;;;;;;5038563;28;25076;-73
2023/03/16 09:16:29;;;;;;;6.15;2.08;;;5.60;99.90;;;;;;5038745;28;25076;-73
2023/03/16 09:18:57;;;;;;;3.85;1.25;;;5.70;99.90;;;;;;5038689;28;25064;-72
2023/03/16 09:21:24;;;;;;;3.50;1.58;;;5.70;99.90;;;;;;5039379;28;25057;-73
2023/03/16 09:23:53;;;;;;;5.75;1.58;;;5.80;99.90;;;;;;5039145;28;25060;-71
2023/03/16 09:26:21;;;;;;;5.70;2.28;;;5.80;99.90;;;;;;5038533;28;25110;-72
2023/03/16 09:28:48;;;;;;;6.55;1.42;;;5.80;99.90;;;;;;5039006;28;25121;-72
2023/03/16 09:31:19;;;;;;;4.80;1.65;;;5.90;99.90;;;;;;5004820;28;25048;-73
2023/03/16 09:33:47;;;;;;;4.93;1.35;;;5.80;99.90;;;;;;5038382;28;25139;-72
2023/03/16 09:36:15;;;;;;;3.33;1.17;;;5.90;99.90;;;;;;5020848;28;25080;-72
2023/03/16 09:38:43;;;;;;;4.18;1.10;;;5.90;99.90;;;;;;5020743;28;25142;-73
2023/03/16 09:41:31;;;;;;;5.60;1.45;;;5.90;99.90;;;;;;5038749;28;25067;-72
2023/03/16 09:44:32;;;;;;;5.35;1.27;;;6.00;99.90;;;;;;5038811;28;25105;-72
2023/03/16 09:47:01;;;;;;;6.90;1.50;;;6.10;99.90;;;;;;5007791;28;25055;-73
2023/03/16 09:49:36;;;;;;;4.18;1.25;;;6.10;99.90;;;;;;5038151;28;25125;-73
2023/03/16 09:52:50;;;;;;;5.60;1.45;;;6.10;99.90;;;;;;5038195;28;25086;-72
2023/03/16 09:55:37;;;;;;;4.82;1.50;;;6.20;99.90;;;;;;5038237;28;25089;-73
2023/03/16 09:58:16;;;;;;;2.22;1.27;;;6.20;99.90;;;;;;5037878;28;25065;-73
2023/03/16 10:01:04;;;;;;;3.53;1.38;;;6.30;99.90;;;;;;5037902;28;25055;-73
2023/03/16 10:03:44;;;;;;;6.15;1.40;;;6.30;99.90;;;;;;5038274;28;25111;-72
2023/03/16 10:06:12;;;;;;;5.53;1.48;;;6.30;99.90;;;;;;5037787;28;25073;-72
2023/03/16 10:08:45;;;;;;;3.45;1.17;;;6.30;99.90;;;;;;5037702;28;25079;-73
2023/03/16 10:11:31;;;;;;;2.63;1.23;;;6.30;99.90;;;;;;5020151;28;25074;-73
2023/03/16 10:14:04;;;;;;;;;;;6.30;99.90;;;;;;5038117;28;25070;-73
2023/03/16 10:16:39;;;;;;;5.20;1.00;;;6.40;99.90;;;;;;5037517;28;25055;-73
2023/03/16 10:19:22;;;;;;;2.97;1.15;;;6.40;99.90;;;;;;5038048;28;25153;-72
2023/03/16 10:21:54;;;;;;;3.53;1.10;;;6.40;99.90;;;;;;5037333;28;25062;-72
2023/03/16 10:24:41;;;;;;;4.80;1.35;;;6.50;99.90;;;;;;5037472;28;25071;-72
2023/03/16 10:27:19;;;;;;;4.97;1.30;;;6.70;99.90;;;;;;5037459;28;25132;-72
2023/03/16 10:29:48;;;;;;;4.38;1.42;;;6.90;99.90;;;;;;5037371;28;25067;-72
2023/03/16 10:32:18;;;;;;;5.72;1.15;;;7.10;99.90;;;;;;5037305;28;25071;-72
2023/03/16 10:34:56;;;;;;;4.57;1.33;;;7.30;99.90;;;;;;5037301;28;25063;-72
2023/03/16 10:37:27;;;;;;;5.63;1.70;;;7.40;99.90;;;;;;5037271;28;25104;-73
2023/03/16 10:39:55;;;;;;;3.85;1.38;;;7.60;99.90;;;;;;5037480;28;25102;-73
2023/03/16 10:42:25;;;;;;;3.75;1.40;;;7.80;99.90;;;;;;5037137;28;25099;-70
2023/03/16 10:45:00;;;;;;;5.45;1.20;;;7.90;98.60;;;;;;5037184;28;25058;-70
2023/03/16 10:47:34;;;;;;;2.22;1.02;;;8.00;98.80;;;;;;5036735;28;25078;-72
2023/03/16 10:50:15;;;;;;;3.33;1.30;;;8.20;97.60;;;;;;5037942;28;25139;-72
2023/03/16 10:52:50;;;;;;;7.28;1.52;;;8.30;97.40;;;;;;5036875;28;25144;-70
2023/03/16 10:55:31;;;;;;;5.57;2.28;;;8.50;98.30;;;;;;5019596;28;25065;-68
2023/03/16 10:58:00;;;;;;;4.63;1.63;;;8.60;96.80;;;;;;5036846;28;25066;-70
2023/03/16 11:00:37;;;;;;;3.08;1.30;;;8.80;96.10;;;;;;5019655;28;25086;-70
2023/03/16 11:03:34;;;;;;;5.53;1.98;;;8.90;95.80;;;;;;5019693;28;25113;-70
2023/03/16 11:06:03;;;;;;;5.07;3.40;;;9.00;94.70;;;;;;5037038;28;25096;-70
2023/03/16 11:08:40;;;;;;;3.05;1.45;;;9.20;94.00;;;;;;5036662;28;25151;-70
2023/03/16 11:11:18;;;;;;;7.70;2.20;;;9.10;94.70;;;;;;5036581;28;25107;-70
2023/03/16 11:13:48;;;;;;;5.13;1.48;;;9.20;94.20;;;;;;5036661;28;25078;-70
2023/03/16 11:16:55;;;;;;;3.88;1.35;;;9.20;93.60;;;;;;5036524;28;25145;-70
2023/03/16 11:19:33;;;;;;;6.60;2.15;;;9.30;93.00;;;;;;5027755;28;25099;-70
2023/03/16 11:22:28;;;;;;;5.10;1.65;;;9.40;92.80;;;;;;5036438;28;25096;-70
2023/03/16 11:25:06;;;;;;;2.83;1.40;;;9.50;91.40;;;;;;5035311;28;25078;-70
2023/03/16 11:27:37;;;;;;;3.85;1.50;;;9.50;90.20;;;;;;5018914;28;25084;-73
2023/03/16 11:30:23;;;;;;;3.00;1.13;;;9.50;90.40;;;;;;5037000;28;25132;-70
2023/03/16 11:32:52;;;;;;;3.78;1.10;;;9.50;86.90;;;;;;5037316;28;25075;-73
2023/03/16 11:35:24;;;;;;;2.95;1.52;;;9.60;88.10;;;;;;5036175;28;25056;-71
2023/03/16 11:38:20;;;;;;;2.40;1.52;;;9.60;88.90;;;;;;5036439;28;25056;-71
2023/03/16 11:40:59;;;;;;;3.15;1.38;;;9.70;88.60;;;;;;5036113;28;25057;-71
2023/03/16 11:43:52;;;;;;;4.85;1.85;;;9.80;87.70;;;;;;5036399;28;25074;-71
2023/03/16 11:46:42;;;;;;;2.22;1.02;;;9.80;86.80;;;;;;5036570;28;25060;-70
2023/03/16 11:49:41;;;;;;;5.28;1.15;;;9.90;81.80;;;;;;5067145;28;25134;-70
2023/03/16 11:52:09;;;;;;;5.00;1.50;;;10.00;84.30;;;;;;5055997;28;25069;-70
2023/03/16 11:54:47;;;;;;;7.18;1.58;;;10.10;82.70;;;;;;5056127;28;25087;-71
2023/03/16 11:57:45;;;;;;;1.90;0.93;;;10.10;82.10;;;;;;5056613;28;25118;-70
2023/03/16 12:00:20;;;;;;;2.10;1.13;;;10.10;82.20;;;;;;5056310;28;25129;-70
2023/03/16 12:03:00;;;;;;;3.70;1.50;;;10.20;78.20;;;;;;5055889;28;25075;-70
2023/03/16 12:05:46;;;;;;;2.92;0.88;;;10.10;78.70;;;;;;5056343;28;25115;-70
2023/03/16 12:08:35;;;;;;;6.82;1.08;;;10.10;77.60;;;;;;5055762;28;25075;-70
2023/03/16 12:11:18;;;;;;;3.30;1.40;;;10.20;76.40;;;;;;5056047;28;25078;-70
2023/03/16 12:14:00;;;;;;;3.15;1.48;;;10.30;76.60;;;;;;5056097;28;25051;-70
2023/03/16 12:16:44;;;;;;;3.35;1.13;;;10.50;76.60;;;;;;5056628;28;25062;-70
2023/03/16 12:19:46;;;;;;;5.07;1.40;;;10.60;75.20;;;;;;5055894;28;25149;-72
2023/03/16 12:22:33;;;;;;;1.65;0.90;;;10.70;73.40;;;;;;5041001;28;25063;-70
2023/03/16 12:25:03;;;;;;;2.60;1.00;;;10.70;73.60;;;;;;5054896;28;25063;-71
2023/03/16 12:27:36;;;;;;;2.72;1.05;;;10.70;73.90;;;;;;5056069;28;25092;-70
2023/03/16 12:30:41;;;;;;;3.08;1.00;;;10.60;74.10;;;;;;5055787;28;25059;-70
2023/03/16 12:33:31;;;;;;;2.15;0.88;;;10.60;73.40;;;;;;5055926;28;25065;-70
2023/03/16 12:36:16;;;;;;;2.33;1.20;;;10.60;72.20;;;;;;5054540;28;25160;-70
2023/03/16 12:39:15;;;;;;;4.35;1.90;;;10.50;72.50;;;;;;5055613;28;25078;-70
2023/03/16 12:41:52;;;;;;;15.93;5.75;;;10.50;73.70;;;;;;5057506;28;25068;-70
2023/03/16 12:44:36;;;;;;;7.35;3.22;;;10.50;73.20;;;;;;5060078;28;25069;-70
2023/03/16 12:47:30;;;;;;;5.60;2.20;;;10.60;72.00;;;;;;5059188;28;25065;-70
2023/03/16 12:50:14;;;;;;;8.73;3.10;;;10.60;71.20;;;;;;5058295;28;25110;-70
2023/03/16 12:52:43;;;;;;;12.65;4.53;;;10.50;71.90;;;;;;5059176;28;25072;-70
2023/03/16 12:55:20;;;;;;;17.08;6.07;;;10.40;74.50;;;;;;5059201;28;25152;-70
2023/03/16 12:57:50;;;;;;;5.00;1.77;;;10.50;73.40;;;;;;5059090;28;25057;-70
2023/03/16 13:00:18;;;;;;;13.05;4.32;;;10.50;72.90;;;;;;5059089;28;25068;-70
2023/03/16 13:02:56;;;;;;;3.55;1.58;;;10.60;72.20;;;;;;5058889;28;25076;-70
2023/03/16 13:05:35;;;;;;;17.38;5.85;;;10.50;72.90;;;;;;5059139;28;25079;-70
2023/03/16 13:08:16;;;;;;;11.77;4.22;;;10.50;73.00;;;;;;5057784;28;25073;-70
2023/03/16 13:11:05;;;;;;;8.15;2.97;;;10.60;73.80;;;;;;5057749;28;25092;-70
2023/03/16 13:13:33;;;;;;;6.35;1.60;;;10.60;71.40;;;;;;5057408;28;25079;-70